sensor_id;sensor_type;location;lat;lon;timestamp;P1;durP1;ratioP1;P2;durP2;ratioP2
28629;SDS011;15817;42.130;24.762;2022-11-20T00:01:30;33.95;;;24.90;;
28629;SDS011;15817;42.130;24.762;2022-11-20T00:03:57;36.88;;;26.45;;
28629;SDS011;15817;42.130;24.762;2022-11-20T00:06:24;35.72;;;25.17;;
28629;SDS011;15817;42.130;24.762;2022-11-20T00:08:55;35.47;;;25.08;;
28629;SDS011;15817;42.130;24.762;2022-11-20T00:11:22;40.65;;;26.58;;
28629;SDS011;15817;42.130;24.762;2022-11-20T00:13:49;36.72;;;26.48;;
28629;SDS011;15817;42.130;24.762;2022-11-20T00:16:21;35.95;;;25.77;;
28629;SDS011;15817;42.130;24.762;2022-11-20T00:18:48;34.72;;;25.92;;
28629;SDS011;15817;42.130;24.762;2022-11-20T00:21:21;44.10;;;25.52;;
28629;SDS011;15817;42.130;24.762;2022-11-20T00:23:49;37.70;;;25.30;;
28629;SDS011;15817;42.130;24.762;2022-11-20T00:26:17;36.88;;;26.55;;
28629;SDS011;15817;42.130;24.762;2022-11-20T00:28:49;36.03;;;25.75;;
28629;SDS011;15817;42.130;24.762;2022-11-20T00:31:19;33.53;;;26.27;;
28629;SDS011;15817;42.130;24.762;2022-11-20T00:33:45;38.42;;;25.58;;
28629;SDS011;15817;42.130;24.762;2022-11-20T00:36:15;41.00;;;27.45;;
28629;SDS011;15817;42.130;24.762;2022-11-20T00:38:43;35.45;;;26.63;;
28629;SDS011;15817;42.130;24.762;2022-11-20T00:41:19;36.80;;;26.98;;
28629;SDS011;15817;42.130;24.762;2022-11-20T00:43:45;33.08;;;25.58;;
28629;SDS011;15817;42.130;24.762;2022-11-20T00:46:15;38.90;;;25.02;;
28629;SDS011;15817;42.130;24.762;2022-11-20T00:48:43;34.60;;;25.15;;
28629;SDS011;15817;42.130;24.762;2022-11-20T00:51:10;34.03;;;25.60;;
28629;SDS011;15817;42.130;24.762;2022-11-20T00:53:39;34.13;;;24.40;;
28629;SDS011;15817;42.130;24.762;2022-11-20T00:56:12;36.38;;;25.23;;
28629;SDS011;15817;42.130;24.762;2022-11-20T00:58:40;38.85;;;26.30;;
28629;SDS011;15817;42.130;24.762;2022-11-20T01:01:08;43.97;;;26.15;;
28629;SDS011;15817;42.130;24.762;2022-11-20T01:03:40;36.53;;;25.85;;
28629;SDS011;15817;42.130;24.762;2022-11-20T01:06:18;35.85;;;25.17;;
28629;SDS011;15817;42.130;24.762;2022-11-20T01:08:48;42.47;;;26.35;;
28629;SDS011;15817;42.130;24.762;2022-11-20T01:11:15;38.60;;;24.98;;
28629;SDS011;15817;42.130;24.762;2022-11-20T01:13:44;34.97;;;26.40;;
28629;SDS011;15817;42.130;24.762;2022-11-20T01:16:13;31.92;;;24.65;;
28629;SDS011;15817;42.130;24.762;2022-11-20T01:18:45;36.92;;;25.02;;
28629;SDS011;15817;42.130;24.762;2022-11-20T01:21:14;36.38;;;24.63;;
28629;SDS011;15817;42.130;24.762;2022-11-20T01:24:00;39.15;;;25.70;;
28629;SDS011;15817;42.130;24.762;2022-11-20T01:26:34;37.30;;;25.27;;
28629;SDS011;15817;42.130;24.762;2022-11-20T01:29:01;33.38;;;24.25;;
28629;SDS011;15817;42.130;24.762;2022-11-20T01:31:29;38.40;;;25.33;;
28629;SDS011;15817;42.130;24.762;2022-11-20T01:33:57;34.30;;;25.10;;
28629;SDS011;15817;42.130;24.762;2022-11-20T01:36:26;33.00;;;23.48;;
28629;SDS011;15817;42.130;24.762;2022-11-20T01:38:54;34.35;;;25.00;;
28629;SDS011;15817;42.130;24.762;2022-11-20T01:41:21;40.08;;;25.23;;
28629;SDS011;15817;42.130;24.762;2022-11-20T01:44:06;34.95;;;24.52;;
28629;SDS011;15817;42.130;24.762;2022-11-20T01:46:33;34.63;;;25.15;;
28629;SDS011;15817;42.130;24.762;2022-11-20T01:49:25;32.88;;;24.48;;
28629;SDS011;15817;42.130;24.762;2022-11-20T01:52:01;31.92;;;23.60;;
28629;SDS011;15817;42.130;24.762;2022-11-20T01:54:32;38.40;;;25.45;;
28629;SDS011;15817;42.130;24.762;2022-11-20T01:57:09;35.78;;;25.27;;
28629;SDS011;15817;42.130;24.762;2022-11-20T01:59:38;35.83;;;23.52;;
28629;SDS011;15817;42.130;24.762;2022-11-20T02:02:07;35.08;;;24.17;;
28629;SDS011;15817;42.130;24.762;2022-11-20T02:04:33;32.58;;;24.25;;
28629;SDS011;15817;42.130;24.762;2022-11-20T02:07:01;36.83;;;24.92;;
28629;SDS011;15817;42.130;24.762;2022-11-20T02:09:30;36.47;;;25.00;;
28629;SDS011;15817;42.130;24.762;2022-11-20T02:11:56;37.25;;;24.27;;
28629;SDS011;15817;42.130;24.762;2022-11-20T02:14:23;35.72;;;24.33;;
28629;SDS011;15817;42.130;24.762;2022-11-20T02:16:50;36.67;;;25.02;;
28629;SDS011;15817;42.130;24.762;2022-11-20T02:19:27;33.70;;;24.30;;
28629;SDS011;15817;42.130;24.762;2022-11-20T02:21:58;33.72;;;25.23;;
28629;SDS011;15817;42.130;24.762;2022-11-20T02:24:28;35.50;;;23.98;;
28629;SDS011;15817;42.130;24.762;2022-11-20T02:26:59;34.78;;;23.08;;
28629;SDS011;15817;42.130;24.762;2022-11-20T02:29:30;31.77;;;23.80;;
28629;SDS011;15817;42.130;24.762;2022-11-20T02:32:00;32.30;;;23.90;;
28629;SDS011;15817;42.130;24.762;2022-11-20T02:34:27;38.22;;;23.23;;
28629;SDS011;15817;42.130;24.762;2022-11-20T02:36:54;35.38;;;24.35;;
28629;SDS011;15817;42.130;24.762;2022-11-20T02:39:22;33.88;;;23.08;;
28629;SDS011;15817;42.130;24.762;2022-11-20T02:41:51;30.02;;;23.23;;
28629;SDS011;15817;42.130;24.762;2022-11-20T02:44:21;32.85;;;24.48;;
28629;SDS011;15817;42.130;24.762;2022-11-20T02:46:47;40.90;;;26.35;;
28629;SDS011;15817;42.130;24.762;2022-11-20T02:49:13;34.42;;;24.90;;
28629;SDS011;15817;42.130;24.762;2022-11-20T02:51:39;39.65;;;26.33;;
28629;SDS011;15817;42.130;24.762;2022-11-20T02:54:04;32.78;;;24.15;;
28629;SDS011;15817;42.130;24.762;2022-11-20T02:56:30;38.58;;;24.63;;
28629;SDS011;15817;42.130;24.762;2022-11-20T02:58:56;32.15;;;23.58;;
28629;SDS011;15817;42.130;24.762;2022-11-20T03:01:22;35.67;;;23.40;;
28629;SDS011;15817;42.130;24.762;2022-11-20T03:03:49;33.10;;;24.00;;
28629;SDS011;15817;42.130;24.762;2022-11-20T03:06:16;34.00;;;24.55;;
28629;SDS011;15817;42.130;24.762;2022-11-20T03:08:42;36.05;;;24.48;;
28629;SDS011;15817;42.130;24.762;2022-11-20T03:11:08;34.88;;;23.90;;
28629;SDS011;15817;42.130;24.762;2022-11-20T03:13:34;38.03;;;24.27;;
28629;SDS011;15817;42.130;24.762;2022-11-20T03:16:05;33.60;;;22.55;;
28629;SDS011;15817;42.130;24.762;2022-11-20T03:18:41;32.58;;;22.27;;
28629;SDS011;15817;42.130;24.762;2022-11-20T03:21:10;35.50;;;24.05;;
28629;SDS011;15817;42.130;24.762;2022-11-20T03:23:37;36.53;;;22.73;;
28629;SDS011;15817;42.130;24.762;2022-11-20T03:26:11;30.98;;;21.75;;
28629;SDS011;15817;42.130;24.762;2022-11-20T03:28:37;33.88;;;22.67;;
28629;SDS011;15817;42.130;24.762;2022-11-20T03:31:07;29.73;;;21.65;;
28629;SDS011;15817;42.130;24.762;2022-11-20T03:33:36;33.40;;;21.77;;
28629;SDS011;15817;42.130;24.762;2022-11-20T03:36:03;27.20;;;21.55;;
28629;SDS011;15817;42.130;24.762;2022-11-20T03:38:30;31.45;;;21.75;;
28629;SDS011;15817;42.130;24.762;2022-11-20T03:41:00;30.98;;;21.40;;
28629;SDS011;15817;42.130;24.762;2022-11-20T03:43:30;30.38;;;21.33;;
28629;SDS011;15817;42.130;24.762;2022-11-20T03:45:56;27.13;;;21.25;;
28629;SDS011;15817;42.130;24.762;2022-11-20T03:48:22;29.23;;;20.75;;
28629;SDS011;15817;42.130;24.762;2022-11-20T03:50:51;33.10;;;20.20;;
28629;SDS011;15817;42.130;24.762;2022-11-20T03:53:19;26.95;;;19.27;;
28629;SDS011;15817;42.130;24.762;2022-11-20T03:55:49;29.52;;;20.25;;
28629;SDS011;15817;42.130;24.762;2022-11-20T03:58:16;32.05;;;18.98;;
28629;SDS011;15817;42.130;24.762;2022-11-20T04:00:43;24.88;;;17.50;;
28629;SDS011;15817;42.130;24.762;2022-11-20T04:03:09;24.13;;;17.23;;
28629;SDS011;15817;42.130;24.762;2022-11-20T04:05:35;22.17;;;16.55;;
28629;SDS011;15817;42.130;24.762;2022-11-20T04:08:01;30.73;;;17.58;;
28629;SDS011;15817;42.130;24.762;2022-11-20T04:10:27;26.10;;;16.30;;
28629;SDS011;15817;42.130;24.762;2022-11-20T04:12:53;20.45;;;14.18;;
28629;SDS011;15817;42.130;24.762;2022-11-20T04:15:18;24.45;;;14.43;;
28629;SDS011;15817;42.130;24.762;2022-11-20T04:17:44;21.55;;;14.88;;
28629;SDS011;15817;42.130;24.762;2022-11-20T04:20:10;24.48;;;16.05;;
28629;SDS011;15817;42.130;24.762;2022-11-20T04:22:39;25.98;;;15.45;;
28629;SDS011;15817;42.130;24.762;2022-11-20T04:25:05;24.30;;;14.95;;
28629;SDS011;15817;42.130;24.762;2022-11-20T04:27:31;27.33;;;13.82;;
28629;SDS011;15817;42.130;24.762;2022-11-20T04:29:57;26.00;;;15.23;;
28629;SDS011;15817;42.130;24.762;2022-11-20T04:32:25;28.23;;;14.15;;
28629;SDS011;15817;42.130;24.762;2022-11-20T04:34:51;23.58;;;14.95;;
28629;SDS011;15817;42.130;24.762;2022-11-20T04:37:27;20.83;;;14.23;;
28629;SDS011;15817;42.130;24.762;2022-11-20T04:39:53;19.05;;;11.90;;
28629;SDS011;15817;42.130;24.762;2022-11-20T04:42:31;22.58;;;13.30;;
28629;SDS011;15817;42.130;24.762;2022-11-20T04:45:08;21.65;;;13.25;;
28629;SDS011;15817;42.130;24.762;2022-11-20T04:47:45;19.65;;;10.88;;
28629;SDS011;15817;42.130;24.762;2022-11-20T04:50:13;18.33;;;9.82;;
28629;SDS011;15817;42.130;24.762;2022-11-20T04:52:40;16.63;;;9.80;;
28629;SDS011;15817;42.130;24.762;2022-11-20T04:55:17;16.80;;;9.07;;
28629;SDS011;15817;42.130;24.762;2022-11-20T04:57:51;20.85;;;9.27;;
28629;SDS011;15817;42.130;24.762;2022-11-20T05:00:20;16.88;;;9.07;;
28629;SDS011;15817;42.130;24.762;2022-11-20T05:02:59;22.55;;;8.80;;
28629;SDS011;15817;42.130;24.762;2022-11-20T05:05:32;20.85;;;9.35;;
28629;SDS011;15817;42.130;24.762;2022-11-20T05:08:13;19.35;;;9.05;;
28629;SDS011;15817;42.130;24.762;2022-11-20T05:10:39;17.95;;;9.30;;
28629;SDS011;15817;42.130;24.762;2022-11-20T05:13:05;21.52;;;10.55;;
28629;SDS011;15817;42.130;24.762;2022-11-20T05:15:30;19.30;;;10.50;;
28629;SDS011;15817;42.130;24.762;2022-11-20T05:17:57;16.55;;;9.27;;
28629;SDS011;15817;42.130;24.762;2022-11-20T05:20:25;15.98;;;9.15;;
28629;SDS011;15817;42.130;24.762;2022-11-20T05:22:56;18.13;;;9.05;;
28629;SDS011;15817;42.130;24.762;2022-11-20T05:25:22;19.52;;;9.18;;
28629;SDS011;15817;42.130;24.762;2022-11-20T05:27:48;19.25;;;8.98;;
28629;SDS011;15817;42.130;24.762;2022-11-20T05:30:14;19.33;;;9.35;;
28629;SDS011;15817;42.130;24.762;2022-11-20T05:32:40;17.88;;;9.55;;
28629;SDS011;15817;42.130;24.762;2022-11-20T05:35:08;22.27;;;12.27;;
28629;SDS011;15817;42.130;24.762;2022-11-20T05:37:37;26.90;;;9.73;;
28629;SDS011;15817;42.130;24.762;2022-11-20T05:40:02;16.63;;;8.88;;
28629;SDS011;15817;42.130;24.762;2022-11-20T05:42:32;20.75;;;9.30;;
28629;SDS011;15817;42.130;24.762;2022-11-20T05:47:25;18.70;;;8.23;;
28629;SDS011;15817;42.130;24.762;2022-11-20T05:49:52;19.08;;;9.70;;
28629;SDS011;15817;42.130;24.762;2022-11-20T05:52:23;16.83;;;9.18;;
28629;SDS011;15817;42.130;24.762;2022-11-20T05:54:49;16.00;;;8.73;;
28629;SDS011;15817;42.130;24.762;2022-11-20T05:57:16;15.35;;;8.73;;
28629;SDS011;15817;42.130;24.762;2022-11-20T05:59:44;20.08;;;9.60;;
28629;SDS011;15817;42.130;24.762;2022-11-20T06:02:10;17.65;;;10.18;;
28629;SDS011;15817;42.130;24.762;2022-11-20T06:04:41;14.02;;;8.13;;
28629;SDS011;15817;42.130;24.762;2022-11-20T06:07:07;13.10;;;9.73;;
28629;SDS011;15817;42.130;24.762;2022-11-20T06:09:33;19.42;;;9.90;;
28629;SDS011;15817;42.130;24.762;2022-11-20T06:11:59;16.73;;;10.02;;
28629;SDS011;15817;42.130;24.762;2022-11-20T06:14:35;16.77;;;10.35;;
28629;SDS011;15817;42.130;24.762;2022-11-20T06:17:01;14.70;;;9.93;;
28629;SDS011;15817;42.130;24.762;2022-11-20T06:19:35;19.35;;;10.07;;
28629;SDS011;15817;42.130;24.762;2022-11-20T06:22:01;20.52;;;10.50;;
28629;SDS011;15817;42.130;24.762;2022-11-20T06:24:36;17.70;;;9.30;;
28629;SDS011;15817;42.130;24.762;2022-11-20T06:27:12;14.85;;;8.98;;
28629;SDS011;15817;42.130;24.762;2022-11-20T06:30:02;20.65;;;9.05;;
28629;SDS011;15817;42.130;24.762;2022-11-20T06:33:00;15.38;;;8.20;;
28629;SDS011;15817;42.130;24.762;2022-11-20T06:36:23;12.73;;;8.25;;
28629;SDS011;15817;42.130;24.762;2022-11-20T06:38:49;18.17;;;9.45;;
28629;SDS011;15817;42.130;24.762;2022-11-20T06:41:23;19.50;;;9.43;;
28629;SDS011;15817;42.130;24.762;2022-11-20T06:44:03;17.45;;;9.10;;
28629;SDS011;15817;42.130;24.762;2022-11-20T06:46:39;16.45;;;8.80;;
28629;SDS011;15817;42.130;24.762;2022-11-20T06:49:24;16.95;;;8.55;;
28629;SDS011;15817;42.130;24.762;2022-11-20T06:52:06;18.65;;;9.02;;
28629;SDS011;15817;42.130;24.762;2022-11-20T06:54:37;15.60;;;8.10;;
28629;SDS011;15817;42.130;24.762;2022-11-20T06:57:09;23.67;;;10.05;;
28629;SDS011;15817;42.130;24.762;2022-11-20T06:59:46;17.25;;;9.40;;
28629;SDS011;15817;42.130;24.762;2022-11-20T07:02:30;17.70;;;9.43;;
28629;SDS011;15817;42.130;24.762;2022-11-20T07:05:00;19.67;;;9.02;;
28629;SDS011;15817;42.130;24.762;2022-11-20T07:10:48;14.82;;;8.40;;
28629;SDS011;15817;42.130;24.762;2022-11-20T07:13:17;13.95;;;9.10;;
28629;SDS011;15817;42.130;24.762;2022-11-20T07:16:05;13.18;;;8.18;;
28629;SDS011;15817;42.130;24.762;2022-11-20T07:18:42;20.95;;;8.57;;
28629;SDS011;15817;42.130;24.762;2022-11-20T07:21:09;18.83;;;10.15;;
28629;SDS011;15817;42.130;24.762;2022-11-20T07:23:47;42.05;;;25.75;;
28629;SDS011;15817;42.130;24.762;2022-11-20T07:26:22;23.02;;;12.98;;
28629;SDS011;15817;42.130;24.762;2022-11-20T07:28:57;22.88;;;12.98;;
28629;SDS011;15817;42.130;24.762;2022-11-20T07:31:38;26.00;;;12.02;;
28629;SDS011;15817;42.130;24.762;2022-11-20T07:34:17;20.52;;;11.15;;
28629;SDS011;15817;42.130;24.762;2022-11-20T07:37:15;20.60;;;11.60;;
28629;SDS011;15817;42.130;24.762;2022-11-20T07:39:41;23.95;;;11.13;;
28629;SDS011;15817;42.130;24.762;2022-11-20T07:42:07;19.23;;;10.70;;
28629;SDS011;15817;42.130;24.762;2022-11-20T07:44:41;16.63;;;10.38;;
28629;SDS011;15817;42.130;24.762;2022-11-20T07:47:07;25.70;;;11.05;;
28629;SDS011;15817;42.130;24.762;2022-11-20T07:49:35;18.05;;;10.77;;
28629;SDS011;15817;42.130;24.762;2022-11-20T07:52:03;23.52;;;12.38;;
28629;SDS011;15817;42.130;24.762;2022-11-20T07:54:37;21.30;;;14.23;;
28629;SDS011;15817;42.130;24.762;2022-11-20T07:57:06;27.95;;;13.80;;
28629;SDS011;15817;42.130;24.762;2022-11-20T07:59:32;24.45;;;15.00;;
28629;SDS011;15817;42.130;24.762;2022-11-20T08:02:04;35.67;;;21.38;;
28629;SDS011;15817;42.130;24.762;2022-11-20T08:04:42;33.50;;;25.15;;
28629;SDS011;15817;42.130;24.762;2022-11-20T08:07:08;27.85;;;16.13;;
28629;SDS011;15817;42.130;24.762;2022-11-20T08:09:37;31.48;;;17.38;;
28629;SDS011;15817;42.130;24.762;2022-11-20T08:15:33;26.75;;;16.02;;
28629;SDS011;15817;42.130;24.762;2022-11-20T08:21:45;32.75;;;15.93;;
28629;SDS011;15817;42.130;24.762;2022-11-20T08:24:23;20.50;;;12.77;;
28629;SDS011;15817;42.130;24.762;2022-11-20T08:26:57;21.15;;;13.20;;
28629;SDS011;15817;42.130;24.762;2022-11-20T08:29:24;25.13;;;11.95;;
28629;SDS011;15817;42.130;24.762;2022-11-20T08:31:55;18.95;;;11.20;;
28629;SDS011;15817;42.130;24.762;2022-11-20T08:34:23;26.95;;;11.35;;
28629;SDS011;15817;42.130;24.762;2022-11-20T08:36:52;22.80;;;11.23;;
28629;SDS011;15817;42.130;24.762;2022-11-20T08:39:18;21.05;;;10.60;;
28629;SDS011;15817;42.130;24.762;2022-11-20T08:41:56;23.95;;;10.07;;
28629;SDS011;15817;42.130;24.762;2022-11-20T08:44:55;16.88;;;9.20;;
28629;SDS011;15817;42.130;24.762;2022-11-20T08:47:30;18.63;;;9.13;;
28629;SDS011;15817;42.130;24.762;2022-11-20T08:49:58;16.80;;;8.25;;
28629;SDS011;15817;42.130;24.762;2022-11-20T08:55:48;17.90;;;9.27;;
28629;SDS011;15817;42.130;24.762;2022-11-20T09:06:24;14.82;;;7.63;;
28629;SDS011;15817;42.130;24.762;2022-11-20T09:09:02;24.05;;;8.10;;
28629;SDS011;15817;42.130;24.762;2022-11-20T09:11:44;13.13;;;6.85;;
28629;SDS011;15817;42.130;24.762;2022-11-20T09:14:34;11.90;;;5.82;;
28629;SDS011;15817;42.130;24.762;2022-11-20T09:17:00;12.27;;;5.93;;
28629;SDS011;15817;42.130;24.762;2022-11-20T09:19:37;11.30;;;6.15;;
28629;SDS011;15817;42.130;24.762;2022-11-20T09:26:11;15.30;;;6.13;;
28629;SDS011;15817;42.130;24.762;2022-11-20T09:29:14;12.25;;;6.90;;
28629;SDS011;15817;42.130;24.762;2022-11-20T09:32:11;17.88;;;7.25;;
28629;SDS011;15817;42.130;24.762;2022-11-20T09:34:40;14.50;;;7.88;;
28629;SDS011;15817;42.130;24.762;2022-11-20T09:37:07;18.58;;;7.75;;
28629;SDS011;15817;42.130;24.762;2022-11-20T09:39:41;16.90;;;9.35;;
28629;SDS011;15817;42.130;24.762;2022-11-20T09:42:14;16.55;;;8.52;;
28629;SDS011;15817;42.130;24.762;2022-11-20T09:45:21;14.93;;;8.23;;
28629;SDS011;15817;42.130;24.762;2022-11-20T09:48:01;9.25;;;7.00;;
28629;SDS011;15817;42.130;24.762;2022-11-20T09:51:05;13.98;;;6.68;;
28629;SDS011;15817;42.130;24.762;2022-11-20T09:53:42;9.82;;;5.68;;
28629;SDS011;15817;42.130;24.762;2022-11-20T09:56:21;14.95;;;5.15;;
28629;SDS011;15817;42.130;24.762;2022-11-20T09:58:51;9.23;;;4.10;;
28629;SDS011;15817;42.130;24.762;2022-11-20T10:01:21;11.80;;;4.35;;
28629;SDS011;15817;42.130;24.762;2022-11-20T10:03:58;10.40;;;4.45;;
28629;SDS011;15817;42.130;24.762;2022-11-20T10:06:37;7.25;;;3.90;;
28629;SDS011;15817;42.130;24.762;2022-11-20T10:09:35;10.82;;;4.20;;
28629;SDS011;15817;42.130;24.762;2022-11-20T10:12:17;14.88;;;5.00;;
28629;SDS011;15817;42.130;24.762;2022-11-20T11:01:21;16.13;;;6.28;;
28629;SDS011;15817;42.130;24.762;2022-11-20T11:12:09;14.73;;;9.63;;
28629;SDS011;15817;42.130;24.762;2022-11-20T11:21:39;21.58;;;12.70;;
28629;SDS011;15817;42.130;24.762;2022-11-20T11:25:38;21.83;;;9.25;;
28629;SDS011;15817;42.130;24.762;2022-11-20T11:28:44;16.77;;;7.78;;
28629;SDS011;15817;42.130;24.762;2022-11-20T11:34:35;18.88;;;8.38;;
28629;SDS011;15817;42.130;24.762;2022-11-20T11:41:08;20.40;;;10.15;;
28629;SDS011;15817;42.130;24.762;2022-11-20T11:44:15;26.40;;;12.40;;
28629;SDS011;15817;42.130;24.762;2022-11-20T11:47:36;35.10;;;13.98;;
28629;SDS011;15817;42.130;24.762;2022-11-20T11:50:20;24.63;;;12.85;;
28629;SDS011;15817;42.130;24.762;2022-11-20T12:04:21;18.58;;;9.00;;
28629;SDS011;15817;42.130;24.762;2022-11-20T12:07:22;25.15;;;11.05;;
28629;SDS011;15817;42.130;24.762;2022-11-20T12:10:05;27.08;;;10.55;;
28629;SDS011;15817;42.130;24.762;2022-11-20T12:12:47;24.70;;;12.35;;
28629;SDS011;15817;42.130;24.762;2022-11-20T12:15:29;33.42;;;15.77;;
28629;SDS011;15817;42.130;24.762;2022-11-20T12:18:00;30.25;;;17.48;;
28629;SDS011;15817;42.130;24.762;2022-11-20T12:20:28;38.28;;;20.00;;
28629;SDS011;15817;42.130;24.762;2022-11-20T12:25:43;25.05;;;14.52;;
28629;SDS011;15817;42.130;24.762;2022-11-20T12:31:03;28.95;;;12.43;;
28629;SDS011;15817;42.130;24.762;2022-11-20T12:39:12;19.00;;;8.10;;
28629;SDS011;15817;42.130;24.762;2022-11-20T12:42:01;43.65;;;19.63;;
28629;SDS011;15817;42.130;24.762;2022-11-20T12:53:33;29.50;;;15.07;;
28629;SDS011;15817;42.130;24.762;2022-11-20T12:56:43;21.80;;;12.63;;
28629;SDS011;15817;42.130;24.762;2022-11-20T13:05:02;66.50;;;35.92;;
28629;SDS011;15817;42.130;24.762;2022-11-20T13:07:48;59.08;;;32.00;;
28629;SDS011;15817;42.130;24.762;2022-11-20T13:10:24;48.67;;;28.13;;
28629;SDS011;15817;42.130;24.762;2022-11-20T13:13:29;55.35;;;31.60;;
28629;SDS011;15817;42.130;24.762;2022-11-20T13:16:05;34.30;;;12.15;;
28629;SDS011;15817;42.130;24.762;2022-11-20T13:18:39;36.78;;;17.80;;
28629;SDS011;15817;42.130;24.762;2022-11-20T13:21:53;35.75;;;16.50;;
28629;SDS011;15817;42.130;24.762;2022-11-20T13:26:45;71.18;;;41.70;;
28629;SDS011;15817;42.130;24.762;2022-11-20T13:29:24;49.50;;;28.92;;
28629;SDS011;15817;42.130;24.762;2022-11-20T13:31:50;54.40;;;28.60;;
28629;SDS011;15817;42.130;24.762;2022-11-20T13:34:28;48.75;;;25.23;;
28629;SDS011;15817;42.130;24.762;2022-11-20T13:37:00;56.17;;;24.83;;
28629;SDS011;15817;42.130;24.762;2022-11-20T13:39:33;39.38;;;23.75;;
28629;SDS011;15817;42.130;24.762;2022-11-20T13:42:02;40.60;;;21.40;;
28629;SDS011;15817;42.130;24.762;2022-11-20T13:44:38;56.85;;;29.10;;
28629;SDS011;15817;42.130;24.762;2022-11-20T13:47:30;47.47;;;25.80;;
28629;SDS011;15817;42.130;24.762;2022-11-20T13:50:02;23.02;;;7.57;;
28629;SDS011;15817;42.130;24.762;2022-11-20T13:52:39;21.50;;;4.70;;
28629;SDS011;15817;42.130;24.762;2022-11-20T13:55:42;18.10;;;4.65;;
28629;SDS011;15817;42.130;24.762;2022-11-20T14:01:47;21.77;;;5.93;;
28629;SDS011;15817;42.130;24.762;2022-11-20T14:04:20;21.75;;;6.45;;
28629;SDS011;15817;42.130;24.762;2022-11-20T14:06:57;19.48;;;3.28;;
28629;SDS011;15817;42.130;24.762;2022-11-20T14:09:27;6.65;;;2.38;;
28629;SDS011;15817;42.130;24.762;2022-11-20T14:12:14;8.40;;;1.60;;
28629;SDS011;15817;42.130;24.762;2022-11-20T14:14:49;9.50;;;2.67;;
28629;SDS011;15817;42.130;24.762;2022-11-20T14:17:18;4.78;;;1.92;;
28629;SDS011;15817;42.130;24.762;2022-11-20T14:20:06;5.43;;;1.80;;
28629;SDS011;15817;42.130;24.762;2022-11-20T14:22:47;6.28;;;1.67;;
28629;SDS011;15817;42.130;24.762;2022-11-20T14:27:53;3.42;;;1.08;;
28629;SDS011;15817;42.130;24.762;2022-11-20T14:30:22;2.65;;;1.35;;
28629;SDS011;15817;42.130;24.762;2022-11-20T14:33:02;5.13;;;1.20;;
28629;SDS011;15817;42.130;24.762;2022-11-20T14:35:30;6.05;;;1.50;;
28629;SDS011;15817;42.130;24.762;2022-11-20T14:38:00;4.82;;;1.48;;
28629;SDS011;15817;42.130;24.762;2022-11-20T14:40:47;8.60;;;4.35;;
28629;SDS011;15817;42.130;24.762;2022-11-20T14:43:23;4.38;;;2.67;;
28629;SDS011;15817;42.130;24.762;2022-11-20T14:46:05;5.70;;;1.30;;
28629;SDS011;15817;42.130;24.762;2022-11-20T14:48:41;6.85;;;1.20;;
28629;SDS011;15817;42.130;24.762;2022-11-20T14:51:11;2.40;;;1.30;;
28629;SDS011;15817;42.130;24.762;2022-11-20T14:53:53;4.45;;;1.30;;
28629;SDS011;15817;42.130;24.762;2022-11-20T14:56:31;6.15;;;1.73;;
28629;SDS011;15817;42.130;24.762;2022-11-20T14:58:58;6.18;;;1.90;;
28629;SDS011;15817;42.130;24.762;2022-11-20T15:01:30;5.88;;;1.70;;
28629;SDS011;15817;42.130;24.762;2022-11-20T15:03:59;3.80;;;1.77;;
28629;SDS011;15817;42.130;24.762;2022-11-20T15:06:34;5.85;;;2.72;;
28629;SDS011;15817;42.130;24.762;2022-11-20T15:09:13;6.95;;;3.13;;
28629;SDS011;15817;42.130;24.762;2022-11-20T15:11:50;5.43;;;2.80;;
28629;SDS011;15817;42.130;24.762;2022-11-20T15:14:22;6.85;;;3.03;;
28629;SDS011;15817;42.130;24.762;2022-11-20T15:17:03;9.65;;;3.75;;
28629;SDS011;15817;42.130;24.762;2022-11-20T15:19:34;9.65;;;4.53;;
28629;SDS011;15817;42.130;24.762;2022-11-20T15:22:07;11.90;;;7.15;;
28629;SDS011;15817;42.130;24.762;2022-11-20T15:24:55;35.15;;;7.88;;
28629;SDS011;15817;42.130;24.762;2022-11-20T15:27:34;7.45;;;4.53;;
28629;SDS011;15817;42.130;24.762;2022-11-20T15:30:04;10.20;;;4.53;;
28629;SDS011;15817;42.130;24.762;2022-11-20T15:32:47;20.50;;;11.88;;
28629;SDS011;15817;42.130;24.762;2022-11-20T15:35:19;17.15;;;8.80;;
28629;SDS011;15817;42.130;24.762;2022-11-20T15:38:13;14.05;;;9.85;;
28629;SDS011;15817;42.130;24.762;2022-11-20T15:40:44;10.98;;;7.10;;
28629;SDS011;15817;42.130;24.762;2022-11-20T15:43:20;13.05;;;6.72;;
28629;SDS011;15817;42.130;24.762;2022-11-20T15:45:50;12.13;;;7.18;;
28629;SDS011;15817;42.130;24.762;2022-11-20T15:48:21;11.80;;;6.03;;
28629;SDS011;15817;42.130;24.762;2022-11-20T15:51:06;12.35;;;5.32;;
28629;SDS011;15817;42.130;24.762;2022-11-20T15:53:53;13.45;;;5.63;;
28629;SDS011;15817;42.130;24.762;2022-11-20T15:59:38;10.32;;;3.58;;
28629;SDS011;15817;42.130;24.762;2022-11-20T16:03:10;6.13;;;2.22;;
28629;SDS011;15817;42.130;24.762;2022-11-20T16:06:01;5.63;;;2.03;;
28629;SDS011;15817;42.130;24.762;2022-11-20T16:08:27;3.63;;;1.80;;
28629;SDS011;15817;42.130;24.762;2022-11-20T16:10:56;2.97;;;1.90;;
28629;SDS011;15817;42.130;24.762;2022-11-20T16:13:22;5.10;;;2.25;;
28629;SDS011;15817;42.130;24.762;2022-11-20T16:16:33;6.03;;;2.35;;
28629;SDS011;15817;42.130;24.762;2022-11-20T16:19:03;12.38;;;3.40;;
28629;SDS011;15817;42.130;24.762;2022-11-20T16:22:01;6.28;;;2.97;;
28629;SDS011;15817;42.130;24.762;2022-11-20T16:24:27;12.48;;;5.63;;
28629;SDS011;15817;42.130;24.762;2022-11-20T16:26:54;13.63;;;6.85;;
28629;SDS011;15817;42.130;24.762;2022-11-20T16:29:37;9.27;;;4.13;;
28629;SDS011;15817;42.130;24.762;2022-11-20T16:32:06;9.63;;;4.40;;
28629;SDS011;15817;42.130;24.762;2022-11-20T16:34:44;7.05;;;3.88;;
28629;SDS011;15817;42.130;24.762;2022-11-20T16:37:41;7.10;;;3.38;;
28629;SDS011;15817;42.130;24.762;2022-11-20T16:40:29;7.15;;;3.90;;
28629;SDS011;15817;42.130;24.762;2022-11-20T16:42:55;8.13;;;4.45;;
28629;SDS011;15817;42.130;24.762;2022-11-20T16:45:22;13.82;;;5.50;;
28629;SDS011;15817;42.130;24.762;2022-11-20T16:47:48;13.02;;;7.13;;
28629;SDS011;15817;42.130;24.762;2022-11-20T16:50:15;10.75;;;6.85;;
28629;SDS011;15817;42.130;24.762;2022-11-20T16:52:43;14.88;;;8.05;;
28629;SDS011;15817;42.130;24.762;2022-11-20T16:55:12;13.82;;;6.10;;
28629;SDS011;15817;42.130;24.762;2022-11-20T16:58:14;14.60;;;5.82;;
28629;SDS011;15817;42.130;24.762;2022-11-20T17:00:43;17.92;;;7.53;;
28629;SDS011;15817;42.130;24.762;2022-11-20T17:03:21;21.23;;;9.20;;
28629;SDS011;15817;42.130;24.762;2022-11-20T17:05:55;16.58;;;8.10;;
28629;SDS011;15817;42.130;24.762;2022-11-20T17:08:20;18.35;;;6.93;;
28629;SDS011;15817;42.130;24.762;2022-11-20T17:11:17;17.63;;;6.57;;
28629;SDS011;15817;42.130;24.762;2022-11-20T17:25:04;15.07;;;5.30;;
28629;SDS011;15817;42.130;24.762;2022-11-20T17:47:09;15.15;;;8.20;;
28629;SDS011;15817;42.130;24.762;2022-11-20T17:49:37;19.27;;;7.05;;
28629;SDS011;15817;42.130;24.762;2022-11-20T17:52:06;22.00;;;8.73;;
28629;SDS011;15817;42.130;24.762;2022-11-20T17:54:50;18.58;;;7.40;;